createdAt,value
2022-10-09T00:00:29.319Z,9.32
2022-10-09T00:01:29.311Z,9.35
2022-10-09T00:02:29.404Z,9.35
2022-10-09T00:03:29.309Z,9.37
2022-10-09T00:04:29.268Z,9.32
2022-10-09T00:05:29.407Z,9.31
2022-10-09T00:06:29.252Z,9.38
2022-10-09T00:07:29.238Z,9.31
2022-10-09T00:08:29.238Z,9.45
2022-10-09T00:09:29.282Z,9.41
2022-10-09T00:10:29.203Z,9.40
2022-10-09T00:11:29.195Z,9.41
2022-10-09T00:12:29.182Z,9.42
2022-10-09T00:13:29.170Z,9.45
2022-10-09T00:14:29.175Z,9.37
2022-10-09T00:15:29.210Z,9.24
2022-10-09T00:16:29.268Z,9.24
2022-10-09T00:17:29.126Z,9.35
2022-10-09T00:18:29.119Z,9.35
2022-10-09T00:19:29.109Z,9.22
2022-10-09T00:20:29.204Z,9.17
2022-10-09T00:21:29.145Z,9.17
2022-10-09T00:22:29.073Z,9.17
2022-10-09T00:23:29.068Z,9.20
2022-10-09T00:24:29.053Z,9.24
2022-10-09T00:25:29.046Z,9.23
2022-10-09T00:26:29.046Z,9.31
2022-10-09T00:27:29.090Z,9.27
2022-10-09T00:28:29.082Z,9.27
2022-10-09T00:29:28.999Z,9.22
2022-10-09T00:30:29.067Z,9.27
2022-10-09T00:31:28.996Z,9.32
2022-10-09T00:32:28.965Z,9.35
2022-10-09T00:33:28.960Z,9.38
2022-10-09T00:34:28.956Z,9.34
2022-10-09T00:35:28.934Z,9.35
2022-10-09T00:36:28.925Z,9.27
2022-10-09T00:37:28.936Z,9.44
2022-10-09T00:38:28.898Z,9.32
2022-10-09T00:39:28.903Z,9.37
2022-10-09T00:40:28.890Z,9.38
2022-10-09T00:41:28.878Z,9.44
2022-10-09T00:42:28.856Z,9.31
2022-10-09T00:43:28.842Z,9.34
2022-10-09T00:44:28.838Z,9.31
2022-10-09T00:45:28.822Z,9.35
2022-10-09T00:46:28.907Z,9.27
2022-10-09T00:47:28.804Z,9.35
2022-10-09T00:48:28.790Z,9.27
2022-10-09T00:49:28.776Z,9.26
2022-10-09T00:50:28.854Z,9.20
2022-10-09T00:51:28.761Z,9.26
2022-10-09T00:52:28.744Z,9.17
2022-10-09T00:53:28.759Z,9.15
2022-10-09T00:54:28.730Z,9.13
2022-10-09T00:55:28.716Z,9.06
2022-10-09T00:56:28.735Z,9.12
2022-10-09T00:57:28.690Z,9.10
2022-10-09T00:58:28.681Z,9.04
2022-10-09T00:59:28.673Z,9.06
2022-10-09T01:00:28.659Z,9.01
2022-10-09T01:01:28.733Z,8.96
2022-10-09T01:02:28.689Z,8.97
2022-10-09T01:03:28.628Z,9.03
2022-10-09T01:04:28.616Z,9.01
2022-10-09T01:05:28.607Z,9.16
2022-10-09T01:06:28.599Z,9.10
2022-10-09T01:07:28.600Z,9.15
2022-10-09T01:08:28.603Z,9.16
2022-10-09T01:09:28.596Z,9.17
2022-10-09T01:10:28.556Z,9.10
2022-10-09T01:11:28.547Z,9.15
2022-10-09T01:12:28.531Z,9.12
2022-10-09T01:13:28.540Z,9.16
2022-10-09T01:14:28.586Z,9.08
2022-10-09T01:15:28.570Z,9.10
2022-10-09T01:16:28.517Z,9.12
2022-10-09T01:17:28.492Z,9.08
2022-10-09T01:18:28.476Z,9.22
2022-10-09T01:19:28.459Z,9.24
2022-10-09T01:20:28.524Z,9.24
2022-10-09T01:21:28.437Z,9.17
2022-10-09T01:22:28.426Z,9.19
2022-10-09T01:23:28.433Z,9.13
2022-10-09T01:24:28.405Z,9.20
2022-10-09T01:25:28.434Z,9.13
2022-10-09T01:26:28.409Z,9.16
2022-10-09T01:27:28.384Z,9.26
2022-10-09T01:28:28.462Z,9.23
2022-10-09T01:29:28.355Z,9.08
2022-10-09T01:30:28.344Z,9.19
2022-10-09T01:31:28.403Z,9.19
2022-10-09T01:32:28.404Z,9.23
2022-10-09T01:33:28.310Z,9.23
2022-10-09T01:34:28.333Z,9.31
2022-10-09T01:35:28.289Z,9.30
2022-10-09T01:36:28.283Z,9.24
2022-10-09T01:37:28.267Z,9.20
2022-10-09T01:38:28.320Z,9.22
2022-10-09T01:39:28.249Z,9.17
2022-10-09T01:40:28.247Z,9.19
2022-10-09T01:41:28.254Z,9.16
2022-10-09T01:42:28.215Z,9.15
2022-10-09T01:43:28.207Z,9.12
2022-10-09T01:44:28.221Z,9.16
2022-10-09T01:45:28.185Z,9.15
2022-10-09T01:46:28.285Z,9.12
2022-10-09T01:47:28.167Z,9.10
2022-10-09T01:48:28.150Z,9.03
2022-10-09T01:49:28.142Z,9.13
2022-10-09T01:50:28.204Z,9.13
2022-10-09T01:51:28.148Z,9.01
2022-10-09T01:52:28.121Z,9.12
2022-10-09T01:53:28.103Z,9.04
2022-10-09T01:54:28.090Z,9.03
2022-10-09T01:55:28.077Z,9.08
2022-10-09T01:56:28.110Z,8.97
2022-10-09T01:57:28.082Z,8.98
2022-10-09T01:58:28.058Z,8.88
2022-10-09T01:59:28.033Z,8.93
2022-10-09T02:00:28.035Z,8.91
2022-10-09T02:01:28.039Z,8.94
2022-10-09T02:02:28.171Z,9.00
2022-10-09T02:03:27.991Z,8.86
2022-10-09T02:04:27.982Z,8.86
2022-10-09T02:05:27.971Z,8.93
2022-10-09T02:06:27.966Z,9.04
2022-10-09T02:07:27.949Z,9.00
2022-10-09T02:08:27.985Z,8.93
2022-10-09T02:09:27.931Z,9.06
2022-10-09T02:10:27.914Z,8.98
2022-10-09T02:11:27.906Z,9.06
2022-10-09T02:12:27.895Z,9.03
2022-10-09T02:13:27.909Z,9.04
2022-10-09T02:14:27.934Z,9.03
2022-10-09T02:15:27.863Z,8.98
2022-10-09T02:16:27.851Z,8.98
2022-10-09T02:17:27.840Z,9.08
2022-10-09T02:18:27.829Z,9.03
2022-10-09T02:19:27.824Z,9.04
2022-10-09T02:20:27.958Z,9.12
2022-10-09T02:21:27.799Z,9.13
2022-10-09T02:22:27.789Z,9.08
2022-10-09T02:23:27.782Z,9.04
2022-10-09T02:24:27.770Z,9.00
2022-10-09T02:25:27.755Z,9.10
2022-10-09T02:26:27.806Z,9.00
2022-10-09T02:27:27.733Z,9.10
2022-10-09T02:28:27.769Z,9.00
2022-10-09T02:29:27.737Z,9.10
2022-10-09T02:30:27.722Z,9.03
2022-10-09T02:31:27.818Z,9.03
2022-10-09T02:32:27.757Z,9.04
2022-10-09T02:33:27.672Z,9.06
2022-10-09T02:34:27.659Z,9.06
2022-10-09T02:35:27.667Z,9.00
2022-10-09T02:36:27.640Z,8.98
2022-10-09T02:37:27.657Z,8.98
2022-10-09T02:38:27.726Z,8.91
2022-10-09T02:39:27.622Z,8.91
2022-10-09T02:40:27.599Z,8.96
2022-10-09T02:41:27.589Z,8.89
2022-10-09T02:42:27.591Z,8.93
2022-10-09T02:43:27.576Z,8.89
2022-10-09T02:44:27.632Z,8.94
2022-10-09T02:45:27.569Z,8.91
2022-10-09T02:46:27.590Z,8.86
2022-10-09T02:47:27.537Z,8.86
2022-10-09T02:48:27.515Z,8.80
2022-10-09T02:49:27.509Z,8.83
2022-10-09T02:50:27.557Z,8.80
2022-10-09T02:51:27.487Z,8.85
2022-10-09T02:52:27.471Z,8.85
2022-10-09T02:53:27.475Z,8.85
2022-10-09T02:54:27.463Z,8.82
2022-10-09T02:55:27.440Z,8.86
2022-10-09T02:56:27.483Z,8.96
2022-10-09T02:57:27.418Z,8.83
2022-10-09T02:58:27.408Z,8.91
2022-10-09T02:59:27.415Z,8.89
2022-10-09T03:00:27.437Z,8.83
2022-10-09T03:01:27.441Z,8.85
2022-10-09T03:02:27.519Z,8.89
2022-10-09T03:03:27.354Z,8.86
2022-10-09T03:04:27.349Z,8.79
2022-10-09T03:05:27.357Z,8.83
2022-10-09T03:06:27.326Z,8.89
2022-10-09T03:07:27.314Z,8.86
2022-10-09T03:08:27.369Z,8.93
2022-10-09T03:09:30.288Z,8.91
2022-10-09T03:10:28.285Z,9.00
2022-10-09T03:11:27.272Z,8.97
2022-10-09T03:12:27.257Z,8.94
2022-10-09T03:13:27.249Z,8.94
2022-10-09T03:14:27.290Z,8.97
2022-10-09T03:15:27.234Z,8.98
2022-10-09T03:16:27.300Z,9.00
2022-10-09T03:17:27.228Z,8.97
2022-10-09T03:18:27.191Z,8.93
2022-10-09T03:19:27.181Z,8.82
2022-10-09T03:20:27.240Z,8.91
2022-10-09T03:21:27.178Z,8.83
2022-10-09T03:22:27.196Z,8.97
2022-10-09T03:23:27.137Z,8.94
2022-10-09T03:24:27.145Z,8.80
2022-10-09T03:25:27.116Z,8.80
2022-10-09T03:26:27.131Z,8.88
2022-10-09T03:27:27.093Z,8.86
2022-10-09T03:28:27.151Z,8.89
2022-10-09T03:29:27.070Z,8.94
2022-10-09T03:30:27.082Z,8.85
2022-10-09T03:31:50.673Z,8.83
2022-10-09T03:32:28.197Z,8.79
2022-10-09T03:33:27.067Z,8.91
2022-10-09T03:34:27.019Z,8.88
2022-10-09T03:35:27.006Z,8.85
2022-10-09T03:36:26.998Z,8.88
2022-10-09T03:37:26.994Z,8.86
2022-10-09T03:38:26.975Z,8.82
2022-10-09T03:39:26.975Z,8.89
2022-10-09T03:40:26.959Z,8.91
2022-10-09T03:41:26.946Z,8.85
2022-10-09T03:42:26.940Z,8.88
2022-10-09T03:43:26.931Z,8.86
2022-10-09T03:44:26.923Z,8.96
2022-10-09T03:45:26.903Z,8.85
2022-10-09T03:46:26.971Z,8.88
2022-10-09T03:47:26.980Z,8.75
2022-10-09T03:48:26.865Z,8.73
2022-10-09T03:49:26.877Z,8.85
2022-10-09T03:50:26.850Z,8.86
2022-10-09T03:51:26.836Z,8.86
2022-10-09T03:52:26.822Z,8.88
2022-10-09T03:53:26.820Z,8.86
2022-10-09T03:54:26.819Z,8.83
2022-10-09T03:55:26.848Z,8.83
2022-10-09T03:56:26.784Z,8.83
2022-10-09T03:57:26.771Z,8.91
2022-10-09T03:58:26.763Z,8.83
2022-10-09T03:59:26.750Z,8.86
2022-10-09T04:00:26.751Z,8.97
2022-10-09T04:01:26.857Z,8.86
2022-10-09T04:02:26.801Z,8.88
2022-10-09T04:03:26.710Z,8.88
2022-10-09T04:04:26.705Z,8.85
2022-10-09T04:05:26.715Z,8.86
2022-10-09T04:06:26.685Z,8.83
2022-10-09T04:07:26.684Z,8.83
2022-10-09T04:08:26.652Z,8.85
2022-10-09T04:09:26.643Z,8.79
2022-10-09T04:10:26.631Z,8.71
2022-10-09T04:11:26.630Z,8.83
2022-10-09T04:12:26.624Z,8.86
2022-10-09T04:13:26.695Z,8.71
2022-10-09T04:14:26.591Z,8.85
2022-10-09T04:15:26.578Z,8.85
2022-10-09T04:16:26.739Z,8.85
2022-10-09T04:17:26.568Z,8.85
2022-10-09T04:18:26.544Z,8.79
2022-10-09T04:19:26.606Z,8.68
2022-10-09T04:20:26.520Z,8.79
2022-10-09T04:21:26.653Z,8.75
2022-10-09T04:22:26.507Z,8.80
2022-10-09T04:23:26.506Z,8.68
2022-10-09T04:24:26.514Z,8.82
2022-10-09T04:25:26.552Z,8.78
2022-10-09T04:26:26.462Z,8.68
2022-10-09T04:27:26.446Z,8.67
2022-10-09T04:28:26.537Z,8.76
2022-10-09T04:29:26.430Z,8.71
2022-10-09T04:30:26.412Z,8.78
2022-10-09T04:31:26.472Z,8.68
2022-10-09T04:32:26.390Z,8.75
2022-10-09T04:33:26.394Z,8.68
2022-10-09T04:34:26.377Z,8.67
2022-10-09T04:35:26.373Z,8.79
2022-10-09T04:36:26.362Z,8.70
2022-10-09T04:37:26.373Z,8.67
2022-10-09T04:38:26.551Z,8.73
2022-10-09T04:39:26.425Z,8.73
2022-10-09T04:40:26.305Z,8.68
2022-10-09T04:41:26.312Z,8.71
2022-10-09T04:42:26.287Z,8.75
2022-10-09T04:43:26.349Z,8.75
2022-10-09T04:44:26.264Z,8.70
2022-10-09T04:45:26.358Z,8.76
2022-10-09T04:46:26.251Z,8.61
2022-10-09T04:47:26.233Z,8.65
2022-10-09T04:48:26.221Z,8.60
2022-10-09T04:49:26.299Z,8.61
2022-10-09T04:50:26.193Z,8.71
2022-10-09T04:51:26.197Z,8.67
2022-10-09T04:52:26.207Z,8.76
2022-10-09T04:53:26.187Z,8.67
2022-10-09T04:54:26.154Z,8.61
2022-10-09T04:55:26.173Z,8.71
2022-10-09T04:56:26.146Z,8.75
2022-10-09T04:57:26.121Z,8.73
2022-10-09T04:58:26.114Z,8.73
2022-10-09T04:59:26.104Z,8.76
2022-10-09T05:00:26.094Z,8.73
2022-10-09T05:01:26.191Z,8.70
2022-10-09T05:02:26.221Z,8.68
2022-10-09T05:03:26.067Z,8.71
2022-10-09T05:04:26.054Z,8.78
2022-10-09T05:05:26.042Z,8.75
2022-10-09T05:06:26.089Z,8.67
2022-10-09T05:07:26.074Z,8.70
2022-10-09T05:08:26.009Z,8.71
2022-10-09T05:09:26.022Z,8.80
2022-10-09T05:10:25.987Z,8.71
2022-10-09T05:11:25.995Z,8.75
2022-10-09T05:12:25.965Z,8.75
2022-10-09T05:13:25.959Z,8.75
2022-10-09T05:14:25.957Z,8.61
2022-10-09T05:15:25.933Z,8.58
2022-10-09T05:16:25.974Z,8.75
2022-10-09T05:17:26.025Z,8.70
2022-10-09T05:18:25.904Z,8.65
2022-10-09T05:19:25.907Z,8.55
2022-10-09T05:20:25.890Z,8.57
2022-10-09T05:21:25.871Z,8.57
2022-10-09T05:22:25.912Z,8.60
2022-10-09T05:23:25.849Z,8.63
2022-10-09T05:24:25.841Z,8.60
2022-10-09T05:25:25.926Z,8.65
2022-10-09T05:26:25.832Z,8.61
2022-10-09T05:27:25.808Z,8.64
2022-10-09T05:28:25.899Z,8.55
2022-10-09T05:29:25.786Z,8.64
2022-10-09T05:30:25.777Z,8.67
2022-10-09T05:31:25.953Z,8.63
2022-10-09T05:32:25.756Z,8.67
2022-10-09T05:33:25.742Z,8.71
2022-10-09T05:34:25.741Z,8.67
2022-10-09T05:35:25.721Z,8.65
2022-10-09T05:36:25.715Z,8.78
2022-10-09T05:37:25.754Z,8.70
2022-10-09T05:38:25.692Z,8.73
2022-10-09T05:39:25.686Z,8.64
2022-10-09T05:40:29.101Z,8.67
2022-10-09T05:41:25.683Z,8.71
2022-10-09T05:42:25.664Z,8.71
2022-10-09T05:43:25.705Z,8.70
2022-10-09T05:44:25.626Z,8.64
2022-10-09T05:45:25.615Z,8.63
2022-10-09T05:46:25.604Z,8.60
2022-10-09T05:47:25.599Z,8.71
2022-10-09T05:48:25.596Z,8.76
2022-10-09T05:49:25.582Z,8.70
2022-10-09T05:50:25.567Z,8.67
2022-10-09T05:51:25.553Z,8.64
2022-10-09T05:52:25.546Z,8.61
2022-10-09T05:53:25.529Z,8.61
2022-10-09T05:54:25.535Z,8.64
2022-10-09T05:55:25.570Z,8.60
2022-10-09T05:56:25.503Z,8.68
2022-10-09T05:57:25.571Z,8.76
2022-10-09T05:58:25.483Z,8.71
2022-10-09T05:59:25.482Z,8.78
2022-10-09T06:00:25.457Z,8.80
2022-10-09T06:01:25.557Z,8.83
2022-10-09T06:02:25.539Z,8.79
2022-10-09T06:03:25.431Z,8.73
2022-10-09T06:04:25.430Z,8.73
2022-10-09T06:05:25.418Z,8.83
2022-10-09T06:06:25.393Z,8.82
2022-10-09T06:07:25.441Z,8.85
2022-10-09T06:08:25.371Z,8.83
2022-10-09T06:09:25.398Z,8.82
2022-10-09T06:10:29.014Z,8.91
2022-10-09T06:11:26.340Z,8.80
2022-10-09T06:12:25.338Z,8.80
2022-10-09T06:13:25.397Z,8.94
2022-10-09T06:14:25.334Z,8.88
2022-10-09T06:15:25.298Z,8.85
2022-10-09T06:16:25.360Z,8.85
2022-10-09T06:17:25.282Z,8.86
2022-10-09T06:18:25.269Z,8.98
2022-10-09T06:19:25.326Z,8.98
2022-10-09T06:20:25.261Z,9.06
2022-10-09T06:21:25.238Z,9.06
2022-10-09T06:22:25.225Z,8.96
2022-10-09T06:23:25.230Z,8.97
2022-10-09T06:24:28.752Z,8.96
2022-10-09T06:25:25.305Z,9.03
2022-10-09T06:26:25.211Z,8.97
2022-10-09T06:27:25.173Z,9.15
2022-10-09T06:28:25.274Z,9.10
2022-10-09T06:29:25.192Z,9.13
2022-10-09T06:30:25.143Z,9.16
2022-10-09T06:31:25.234Z,9.13
2022-10-09T06:32:25.125Z,9.19
2022-10-09T06:33:25.122Z,9.13
2022-10-09T06:34:25.098Z,9.08
2022-10-09T06:35:25.102Z,9.19
2022-10-09T06:36:25.079Z,9.22
2022-10-09T06:37:25.086Z,9.20
2022-10-09T06:38:25.056Z,9.22
2022-10-09T06:39:25.044Z,9.30
2022-10-09T06:40:25.036Z,9.23
2022-10-09T06:41:25.032Z,9.27
2022-10-09T06:42:25.012Z,9.32
2022-10-09T06:43:25.076Z,9.22
2022-10-09T06:44:24.993Z,9.37
2022-10-09T06:45:25.230Z,9.32
2022-10-09T06:46:25.027Z,9.24
2022-10-09T06:47:24.965Z,9.20
2022-10-09T06:48:24.956Z,9.32
2022-10-09T06:49:24.969Z,9.16
2022-10-09T06:50:24.931Z,9.37
2022-10-09T06:51:24.935Z,9.23
2022-10-09T06:52:24.906Z,9.40
2022-10-09T06:53:24.900Z,9.42
2022-10-09T06:54:24.888Z,9.44
2022-10-09T06:55:28.568Z,9.45
2022-10-09T06:56:24.863Z,9.42
2022-10-09T06:57:24.881Z,9.40
2022-10-09T06:58:24.847Z,9.49
2022-10-09T06:59:24.840Z,9.44
2022-10-09T07:00:24.826Z,9.42
2022-10-09T07:01:24.909Z,9.40
2022-10-09T07:02:24.861Z,9.42
2022-10-09T07:03:24.808Z,9.40
2022-10-09T07:04:24.786Z,9.38
2022-10-09T07:05:24.773Z,9.35
2022-10-09T07:06:24.764Z,9.38
2022-10-09T07:07:24.818Z,9.40
2022-10-09T07:08:24.749Z,9.32
2022-10-09T07:09:24.725Z,9.40
2022-10-09T07:10:25.444Z,9.42
2022-10-09T07:11:24.706Z,9.44
2022-10-09T07:12:24.696Z,9.38
2022-10-09T07:13:24.782Z,9.45
2022-10-09T07:14:24.685Z,9.45
2022-10-09T07:15:24.665Z,9.40
2022-10-09T07:16:24.745Z,9.45
2022-10-09T07:17:24.663Z,9.44
2022-10-09T07:18:24.631Z,9.42
2022-10-09T07:19:24.684Z,9.50
2022-10-09T07:20:24.608Z,9.49
2022-10-09T07:21:24.596Z,9.49
2022-10-09T07:22:26.976Z,9.38
2022-10-09T07:23:24.578Z,9.40
2022-10-09T07:24:24.613Z,9.48
2022-10-09T07:25:24.621Z,9.41
2022-10-09T07:26:24.544Z,9.50
2022-10-09T07:27:24.533Z,9.56
2022-10-09T07:28:24.570Z,9.63
2022-10-09T07:29:24.513Z,9.55
2022-10-09T07:30:24.522Z,9.45
2022-10-09T07:31:24.556Z,9.52
2022-10-09T07:32:24.508Z,9.55
2022-10-09T07:33:24.497Z,9.60
2022-10-09T07:34:24.458Z,9.60
2022-10-09T07:35:24.451Z,9.67
2022-10-09T07:36:24.469Z,9.60
2022-10-09T07:37:24.440Z,9.62
2022-10-09T07:38:24.424Z,9.63
2022-10-09T07:39:24.410Z,9.55
2022-10-09T07:40:24.393Z,9.71
2022-10-09T07:41:24.405Z,9.74
2022-10-09T07:42:24.374Z,9.78
2022-10-09T07:43:24.426Z,9.86
2022-10-09T07:44:24.357Z,9.86
2022-10-09T07:45:24.343Z,9.88
2022-10-09T07:46:24.411Z,9.81
2022-10-09T07:47:24.338Z,9.88
2022-10-09T07:48:24.312Z,9.92
2022-10-09T07:49:24.336Z,9.68
2022-10-09T07:50:24.292Z,9.75
2022-10-09T07:51:24.287Z,9.70
2022-10-09T07:52:24.270Z,9.93
2022-10-09T07:53:24.260Z,9.96
2022-10-09T07:54:24.245Z,10.02
2022-10-09T07:55:24.257Z,10.17
2022-10-09T07:56:24.246Z,10.29
2022-10-09T07:57:24.215Z,10.31
2022-10-09T07:58:24.204Z,10.46
2022-10-09T07:59:24.231Z,10.60
2022-10-09T08:00:24.261Z,10.84
2022-10-09T08:01:24.250Z,11.12
2022-10-09T08:02:24.233Z,10.95
2022-10-09T08:03:24.146Z,11.01
2022-10-09T08:04:24.140Z,10.98
2022-10-09T08:05:24.362Z,11.17
2022-10-09T08:06:24.124Z,11.12
2022-10-09T08:07:24.167Z,10.99
2022-10-09T08:08:24.094Z,11.05
2022-10-09T08:09:24.291Z,11.05
2022-10-09T08:10:24.130Z,10.95
2022-10-09T08:11:24.066Z,10.95
2022-10-09T08:12:24.065Z,10.94
2022-10-09T08:13:24.040Z,10.86
2022-10-09T08:14:24.024Z,10.84
2022-10-09T08:15:24.011Z,11.01
2022-10-09T08:16:24.000Z,11.02
2022-10-09T08:17:23.994Z,10.95
2022-10-09T08:18:23.990Z,10.91
2022-10-09T08:19:24.009Z,10.87
2022-10-09T08:20:24.072Z,10.94
2022-10-09T08:21:23.987Z,11.13
2022-10-09T08:22:23.933Z,11.23
2022-10-09T08:23:23.940Z,11.06
2022-10-09T08:24:23.923Z,10.87
2022-10-09T08:25:23.970Z,11.06
2022-10-09T08:26:23.937Z,10.86
2022-10-09T08:27:23.884Z,10.94
2022-10-09T08:28:23.936Z,10.95
2022-10-09T08:29:23.869Z,11.03
2022-10-09T08:30:23.954Z,11.05
2022-10-09T08:31:23.955Z,11.09
2022-10-09T08:32:23.873Z,11.16
2022-10-09T08:33:23.821Z,11.06
2022-10-09T08:34:23.801Z,11.02
2022-10-09T08:35:23.805Z,11.08
2022-10-09T08:36:23.780Z,11.08
2022-10-09T08:37:23.822Z,11.11
2022-10-09T08:38:46.146Z,10.99
2022-10-09T08:39:24.748Z,10.90
2022-10-09T08:40:23.809Z,10.91
2022-10-09T08:41:23.727Z,10.84
2022-10-09T08:42:23.730Z,10.73
2022-10-09T08:43:23.708Z,10.58
2022-10-09T08:44:23.726Z,10.49
2022-10-09T08:45:23.686Z,10.58
2022-10-09T08:46:23.747Z,10.72
2022-10-09T08:47:23.730Z,10.66
2022-10-09T08:48:23.693Z,10.62
2022-10-09T08:49:23.697Z,10.63
2022-10-09T08:50:23.631Z,10.65
2022-10-09T08:51:23.627Z,10.54
2022-10-09T08:52:23.666Z,10.52
2022-10-09T08:53:23.622Z,10.57
2022-10-09T08:54:23.608Z,10.44
2022-10-09T08:55:23.575Z,10.54
2022-10-09T08:56:23.684Z,10.57
2022-10-09T08:57:23.555Z,10.44
2022-10-09T08:58:23.548Z,10.34
2022-10-09T08:59:23.527Z,10.25
2022-10-09T09:00:23.519Z,10.26
2022-10-09T09:01:23.531Z,10.25
2022-10-09T09:02:23.587Z,10.25
2022-10-09T09:03:23.484Z,10.13
2022-10-09T09:04:23.531Z,10.01
2022-10-09T09:05:23.460Z,9.99
2022-10-09T09:06:23.461Z,9.93
2022-10-09T09:07:23.448Z,9.75
2022-10-09T09:08:23.430Z,9.81
2022-10-09T09:09:23.490Z,9.86
2022-10-09T09:10:23.412Z,9.75
2022-10-09T09:11:23.419Z,9.80
2022-10-09T09:12:23.402Z,9.86
2022-10-09T09:13:23.374Z,9.75
2022-10-09T09:14:23.356Z,9.73
2022-10-09T09:15:23.349Z,9.70
2022-10-09T09:16:23.422Z,9.75
2022-10-09T09:17:23.398Z,9.77
2022-10-09T09:18:23.317Z,9.91
2022-10-09T09:19:23.312Z,9.74
2022-10-09T09:20:23.295Z,9.80
2022-10-09T09:21:23.281Z,9.68
2022-10-09T09:22:23.341Z,9.71
2022-10-09T09:23:23.276Z,9.78
2022-10-09T09:24:23.247Z,9.81
2022-10-09T09:25:23.269Z,9.74
2022-10-09T09:26:23.229Z,9.67
2022-10-09T09:27:23.214Z,9.63
2022-10-09T09:28:23.317Z,9.70
2022-10-09T09:29:23.192Z,9.75
2022-10-09T09:30:23.177Z,9.77
2022-10-09T09:31:23.241Z,9.71
2022-10-09T09:32:23.154Z,9.62
2022-10-09T09:33:23.156Z,9.78
2022-10-09T09:34:23.193Z,9.78
2022-10-09T09:35:23.123Z,9.75
2022-10-09T09:36:23.113Z,9.83
2022-10-09T09:37:23.104Z,9.78
2022-10-09T09:38:23.102Z,9.83
2022-10-09T09:40:08.311Z,9.80
2022-10-09T09:40:36.083Z,9.89
2022-10-09T09:41:24.075Z,9.92
2022-10-09T09:42:23.137Z,9.92
2022-10-09T09:43:23.031Z,9.96
2022-10-09T09:44:23.021Z,9.78
2022-10-09T09:45:23.017Z,9.67
2022-10-09T09:46:23.070Z,9.62
2022-10-09T09:47:22.988Z,9.73
2022-10-09T09:48:22.986Z,9.88
2022-10-09T09:49:22.964Z,9.73
2022-10-09T09:50:45.641Z,9.75
2022-10-09T09:51:28.522Z,9.62
2022-10-09T09:52:23.947Z,9.67
2022-10-09T09:53:22.920Z,9.67
2022-10-09T09:54:22.919Z,9.77
2022-10-09T09:55:22.899Z,9.63
2022-10-09T09:56:22.891Z,9.59
2022-10-09T09:57:22.899Z,9.70
2022-10-09T09:58:22.868Z,9.59
2022-10-09T09:59:22.864Z,9.68
2022-10-09T10:00:22.844Z,9.59
2022-10-09T10:01:22.855Z,9.63
2022-10-09T10:02:22.936Z,9.70
2022-10-09T10:03:22.809Z,9.63
2022-10-09T10:04:22.863Z,9.65
2022-10-09T10:05:22.798Z,9.77
2022-10-09T10:06:22.775Z,9.74
2022-10-09T10:07:22.764Z,9.68
2022-10-09T10:08:22.751Z,9.63
2022-10-09T10:09:22.745Z,9.75
2022-10-09T10:10:25.611Z,9.73
2022-10-09T10:11:22.726Z,9.75
2022-10-09T10:12:22.712Z,9.73
2022-10-09T10:13:22.728Z,9.81
2022-10-09T10:14:22.685Z,9.77
2022-10-09T10:15:22.862Z,9.81
2022-10-09T10:16:22.754Z,9.89
2022-10-09T10:17:22.670Z,9.89
2022-10-09T10:18:22.714Z,9.92
2022-10-09T10:19:22.638Z,9.85
2022-10-09T10:20:22.625Z,9.80
2022-10-09T10:21:22.623Z,9.85
2022-10-09T10:22:22.598Z,9.75
2022-10-09T10:23:22.663Z,9.88
2022-10-09T10:24:22.573Z,9.80
2022-10-09T10:25:22.563Z,9.92
2022-10-09T10:26:22.559Z,9.88
2022-10-09T10:27:22.555Z,9.83
2022-10-09T10:28:22.631Z,9.96
2022-10-09T10:29:22.678Z,9.88
2022-10-09T10:30:22.510Z,9.85
2022-10-09T10:31:22.561Z,9.85
2022-10-09T10:32:22.504Z,9.93
2022-10-09T10:33:22.490Z,9.93
2022-10-09T10:34:22.468Z,9.78
2022-10-09T10:35:22.733Z,9.77
2022-10-09T10:36:22.451Z,9.80
2022-10-09T10:37:22.434Z,9.68
2022-10-09T10:38:22.434Z,9.77
2022-10-09T10:39:22.412Z,9.75
2022-10-09T10:40:22.400Z,9.81
2022-10-09T10:41:22.399Z,9.91
2022-10-09T10:42:22.390Z,9.77
2022-10-09T10:43:22.366Z,9.88
2022-10-09T10:44:22.368Z,9.81
2022-10-09T10:45:22.369Z,9.70
2022-10-09T10:46:22.368Z,9.74
2022-10-09T10:47:22.328Z,9.60
2022-10-09T10:48:22.334Z,9.63
2022-10-09T10:49:22.305Z,9.60
2022-10-09T10:50:22.294Z,9.63
2022-10-09T10:51:22.281Z,9.75
2022-10-09T10:52:22.274Z,9.74
2022-10-09T10:53:22.293Z,9.83
2022-10-09T10:54:22.265Z,9.85
2022-10-09T10:55:22.235Z,9.98
2022-10-09T10:56:22.228Z,9.86
2022-10-09T10:57:22.216Z,10.01
2022-10-09T10:58:22.207Z,9.86
2022-10-09T10:59:22.282Z,9.93
2022-10-09T11:00:22.213Z,9.88
2022-10-09T11:01:22.316Z,10.01
2022-10-09T11:02:22.163Z,9.95
2022-10-09T11:03:22.228Z,9.92
2022-10-09T11:04:22.142Z,9.80
2022-10-09T11:05:22.188Z,9.92
2022-10-09T11:06:22.135Z,9.92
2022-10-09T11:07:22.108Z,9.93
2022-10-09T11:08:22.153Z,10.01
2022-10-09T11:09:22.094Z,9.96
2022-10-09T11:10:22.079Z,10.01
2022-10-09T11:11:22.137Z,9.92
2022-10-09T11:12:36.343Z,10.07
2022-10-09T11:13:23.055Z,10.01
2022-10-09T11:14:22.040Z,9.99
2022-10-09T11:15:22.024Z,9.95
2022-10-09T11:16:22.101Z,9.88
2022-10-09T11:17:22.058Z,10.06
2022-10-09T11:18:21.988Z,10.11
2022-10-09T11:19:21.991Z,10.02
2022-10-09T11:20:21.968Z,10.09
2022-10-09T11:21:21.960Z,10.13
2022-10-09T11:22:21.946Z,10.11
2022-10-09T11:23:21.938Z,10.11
2022-10-09T11:24:21.933Z,10.20
2022-10-09T11:25:21.909Z,10.24
2022-10-09T11:26:21.897Z,10.34
2022-10-09T11:27:21.888Z,10.26
2022-10-09T11:28:21.905Z,10.24
2022-10-09T11:29:21.882Z,10.29
2022-10-09T11:30:21.857Z,10.36
2022-10-09T11:31:21.973Z,10.25
2022-10-09T11:32:21.888Z,10.09
2022-10-09T11:33:21.849Z,10.20
2022-10-09T11:34:21.810Z,10.25
2022-10-09T11:35:21.820Z,10.28
2022-10-09T11:36:21.805Z,10.34
2022-10-09T11:37:21.777Z,10.20
2022-10-09T11:38:21.780Z,10.07
2022-10-09T11:39:21.752Z,9.99
2022-10-09T11:40:21.745Z,9.86
2022-10-09T11:41:21.817Z,9.92
2022-10-09T11:42:21.724Z,9.85
2022-10-09T11:43:21.719Z,9.88
2022-10-09T11:44:21.701Z,9.88
2022-10-09T11:45:21.685Z,9.78
2022-10-09T11:46:21.688Z,9.88
2022-10-09T11:47:21.729Z,9.63
2022-10-09T11:48:21.655Z,9.71
2022-10-09T11:49:21.773Z,9.83
2022-10-09T11:50:21.640Z,9.95
2022-10-09T11:51:21.625Z,9.95
2022-10-09T11:52:21.609Z,9.95
2022-10-09T11:53:21.664Z,9.95
2022-10-09T11:54:21.599Z,9.91
2022-10-09T11:55:21.593Z,9.83
2022-10-09T11:56:21.567Z,9.91
2022-10-09T11:57:21.560Z,9.83
2022-10-09T11:58:21.551Z,9.89
2022-10-09T11:59:21.545Z,9.71
2022-10-09T12:00:21.540Z,9.74
2022-10-09T12:01:21.583Z,9.77
2022-10-09T12:02:21.533Z,9.89
2022-10-09T12:03:21.498Z,9.92
2022-10-09T12:04:32.314Z,9.85
2022-10-09T12:05:22.526Z,9.81
2022-10-09T12:06:21.462Z,9.81
2022-10-09T12:07:21.476Z,9.70
2022-10-09T12:08:21.443Z,9.77
2022-10-09T12:09:21.430Z,9.73
2022-10-09T12:10:21.421Z,9.70
2022-10-09T12:11:21.414Z,9.68
2022-10-09T12:12:21.396Z,9.71
2022-10-09T12:13:21.400Z,9.80
2022-10-09T12:14:21.375Z,9.78
2022-10-09T12:15:21.366Z,9.93
2022-10-09T12:16:21.405Z,9.98
2022-10-09T12:17:21.351Z,10.01
2022-10-09T12:18:21.360Z,10.09
2022-10-09T12:19:21.325Z,10.17
2022-10-09T12:20:21.311Z,10.16
2022-10-09T12:21:21.329Z,10.17
2022-10-09T12:22:21.291Z,10.28
2022-10-09T12:23:26.821Z,10.34
2022-10-09T12:24:22.268Z,10.32
2022-10-09T12:25:21.259Z,10.39
2022-10-09T12:26:21.249Z,10.34
2022-10-09T12:27:21.242Z,10.47
2022-10-09T12:28:21.328Z,10.39
2022-10-09T12:29:21.326Z,10.34
2022-10-09T12:30:21.211Z,10.44
2022-10-09T12:31:21.346Z,10.47
2022-10-09T12:32:21.194Z,10.51
2022-10-09T12:33:21.197Z,10.51
2022-10-09T12:34:21.174Z,10.55
2022-10-09T12:35:21.240Z,10.57
2022-10-09T12:36:21.151Z,10.49
2022-10-09T12:37:21.163Z,10.62
2022-10-09T12:38:21.124Z,10.84
2022-10-09T12:39:21.125Z,10.63
2022-10-09T12:40:21.101Z,10.66
2022-10-09T12:41:21.165Z,10.57
2022-10-09T12:42:21.125Z,10.62
2022-10-09T12:43:21.067Z,10.70
2022-10-09T12:44:21.080Z,10.44
2022-10-09T12:45:21.046Z,10.54
2022-10-09T12:46:21.104Z,10.32
2022-10-09T12:47:21.087Z,10.13
2022-10-09T12:48:21.018Z,10.31
2022-10-09T12:49:21.011Z,10.20
2022-10-09T12:50:20.988Z,10.13
2022-10-09T12:51:20.976Z,10.18
2022-10-09T12:52:20.964Z,10.17
2022-10-09T12:53:21.020Z,10.24
2022-10-09T12:54:20.956Z,10.17
2022-10-09T12:55:20.949Z,10.28
2022-10-09T12:56:20.922Z,10.32
2022-10-09T12:57:23.983Z,10.32
2022-10-09T12:58:21.896Z,10.20
2022-10-09T12:59:20.917Z,10.18
2022-10-09T13:00:21.074Z,10.34
2022-10-09T13:01:21.014Z,10.22
2022-10-09T13:02:21.027Z,10.11
2022-10-09T13:03:20.846Z,10.09
2022-10-09T13:04:20.850Z,10.07
2022-10-09T13:05:20.819Z,10.16
2022-10-09T13:06:20.858Z,10.09
2022-10-09T13:07:20.799Z,10.04
2022-10-09T13:08:20.788Z,10.04
2022-10-09T13:09:20.816Z,9.80
2022-10-09T13:10:20.767Z,9.86
2022-10-09T13:11:20.810Z,9.89
2022-10-09T13:12:20.744Z,9.86
2022-10-09T13:13:20.736Z,9.92